Time;durP1;ratioP1;P1;durP2;ratioP2;P2;SDS_P1;SDS_P2;PMS_P1;PMS_P2;Temp;Humidity;BMP_temperature;BMP_pressure;BME280_temperature;BME280_humidity;BME280_pressure;Samples;Min_cycle;Max_cycle;Signal;HPM_P1;HPM_P2
2022/04/16 00:00:08;;;;;;;5.00;3.93;;;8.70;99.90;;;;;;5029683;28;20444;-73
2022/04/16 00:02:34;;;;;;;4.90;3.53;;;8.70;99.90;;;;;;5029946;28;20415;-73
2022/04/16 00:05:00;;;;;;;3.80;3.40;;;8.70;99.90;;;;;;5012190;28;21106;-73
2022/04/16 00:07:25;;;;;;;4.37;3.63;;;8.70;99.90;;;;;;5029771;28;20304;-72
2022/04/16 00:09:51;;;;;;;4.17;3.80;;;8.60;99.90;;;;;;5029796;28;20565;-72
2022/04/16 00:12:16;;;;;;;5.70;3.50;;;8.60;99.90;;;;;;5011894;28;20920;-72
2022/04/16 00:14:42;;;;;;;4.00;3.07;;;8.60;99.90;;;;;;5029640;28;20264;-72
2022/04/16 00:17:08;;;;;;;4.27;3.23;;;8.60;99.90;;;;;;5029734;28;20212;-72
2022/04/16 00:19:34;;;;;;;6.80;3.83;;;8.60;99.90;;;;;;5029645;28;20726;-72
2022/04/16 00:22:00;;;;;;;6.70;3.17;;;8.30;99.90;;;;;;5029543;28;20246;-72
2022/04/16 00:24:28;;;;;;;3.27;2.97;;;8.20;99.90;;;;;;5029754;28;20443;-72
2022/04/16 00:26:54;;;;;;;5.43;3.23;;;8.30;99.90;;;;;;5029610;28;20224;-72
2022/04/16 00:29:20;;;;;;;4.63;3.60;;;8.20;99.90;;;;;;5029862;28;20411;-72
2022/04/16 00:31:45;;;;;;;3.57;3.27;;;8.20;99.90;;;;;;5029996;28;20418;-72
2022/04/16 00:34:14;;;;;;;4.93;3.63;;;8.10;99.90;;;;;;5030108;28;20210;-72
2022/04/16 00:36:44;;;;;;;4.73;4.10;;;7.80;99.90;;;;;;5030097;28;20199;-71
2022/04/16 00:39:10;;;;;;;4.17;3.77;;;7.40;99.90;;;;;;5029958;28;20427;-71
2022/04/16 00:41:36;;;;;;;6.33;3.57;;;7.40;99.90;;;;;;5029828;28;20444;-72
2022/04/16 00:44:02;;;;;;;4.23;3.83;;;7.50;99.90;;;;;;5029588;28;20948;-71
2022/04/16 00:46:27;;;;;;;3.63;3.33;;;7.60;99.90;;;;;;5029221;28;20509;-71
2022/04/16 00:48:54;;;;;;;5.27;3.70;;;7.70;99.90;;;;;;5029236;28;20270;-71
2022/04/16 00:51:20;;;;;;;4.10;3.70;;;7.60;99.90;;;;;;5029155;28;20176;-71
2022/04/16 00:53:46;;;;;;;6.00;3.90;;;7.70;99.90;;;;;;5029097;28;20998;-71
2022/04/16 00:56:13;;;;;;;8.37;4.60;;;7.70;99.90;;;;;;5028990;28;20426;-71
2022/04/16 00:58:40;;;;;;;5.30;4.30;;;7.60;99.90;;;;;;5028870;28;20420;-72
2022/04/16 01:01:06;;;;;;;4.43;3.17;;;7.60;99.90;;;;;;5028843;28;20472;-72
2022/04/16 01:03:31;;;;;;;5.33;3.70;;;7.40;99.90;;;;;;5011230;28;20990;-72
2022/04/16 01:05:58;;;;;;;4.90;3.77;;;7.40;99.90;;;;;;5028969;28;20196;-71
2022/04/16 01:08:23;;;;;;;3.50;3.20;;;7.30;99.90;;;;;;5028727;28;20754;-72
2022/04/16 01:10:49;;;;;;;5.30;4.30;;;7.30;99.90;;;;;;5028178;28;20419;-72
2022/04/16 01:13:15;;;;;;;5.23;4.10;;;7.20;99.90;;;;;;5028796;28;20546;-72
2022/04/16 01:15:41;;;;;;;6.30;3.70;;;7.20;99.90;;;;;;5028768;28;20208;-71
2022/04/16 01:18:07;;;;;;;5.30;4.20;;;7.30;99.90;;;;;;5010987;28;20429;-71
2022/04/16 01:20:35;;;;;;;6.27;3.70;;;7.20;99.90;;;;;;5028933;28;21295;-72
2022/04/16 01:23:02;;;;;;;4.33;3.70;;;7.10;99.90;;;;;;5028657;28;20470;-71
2022/04/16 01:25:28;;;;;;;6.03;4.13;;;7.00;99.90;;;;;;5028445;28;20458;-71
2022/04/16 01:27:54;;;;;;;6.47;4.13;;;7.10;99.90;;;;;;5028452;28;20490;-72
2022/04/16 01:30:22;;;;;;;3.90;3.60;;;7.10;99.90;;;;;;5028725;28;20176;-72
2022/04/16 01:32:48;;;;;;;4.47;3.80;;;7.10;99.90;;;;;;5028667;28;20415;-72
2022/04/16 01:35:16;;;;;;;4.60;4.20;;;7.10;99.90;;;;;;5028571;28;20411;-72
2022/04/16 01:37:42;;;;;;;3.60;3.27;;;7.10;99.90;;;;;;5028549;28;20442;-72
2022/04/16 01:40:10;;;;;;;5.83;3.70;;;7.10;99.90;;;;;;5012681;28;20474;-71
2022/04/16 01:42:36;;;;;;;4.03;3.63;;;7.10;99.90;;;;;;5028643;28;20423;-72
2022/04/16 01:45:09;;;;;;;3.60;3.20;;;7.00;99.90;;;;;;5028413;28;20479;-72
2022/04/16 01:47:36;;;;;;;5.60;4.10;;;7.10;99.90;;;;;;5010234;28;20492;-71
2022/04/16 01:50:04;;;;;;;5.57;3.77;;;7.10;99.90;;;;;;5028476;28;20529;-71
2022/04/16 01:52:29;;;;;;;4.70;4.20;;;7.00;99.90;;;;;;5028436;28;20489;-71
2022/04/16 01:54:55;;;;;;;4.47;3.60;;;6.90;99.90;;;;;;5028384;28;20457;-71
2022/04/16 01:57:21;;;;;;;3.20;3.00;;;6.90;99.90;;;;;;5028264;28;20196;-71
2022/04/16 01:59:48;;;;;;;3.63;3.27;;;6.90;99.90;;;;;;5028296;28;20191;-71
2022/04/16 02:02:14;;;;;;;6.90;3.73;;;6.90;99.90;;;;;;5028232;28;20183;-71
2022/04/16 02:04:40;;;;;;;5.40;4.50;;;6.80;99.90;;;;;;5028223;28;20417;-71
2022/04/16 02:07:06;;;;;;;5.40;3.50;;;6.80;99.90;;;;;;5028134;28;20628;-71
2022/04/16 02:09:32;;;;;;;4.97;3.70;;;6.90;99.90;;;;;;5028262;28;20506;-71
2022/04/16 02:11:58;;;;;;;3.37;3.17;;;6.90;99.90;;;;;;5010419;28;20939;-71
2022/04/16 02:14:24;;;;;;;4.10;3.70;;;6.90;99.90;;;;;;5028219;28;20419;-71
2022/04/16 02:16:50;;;;;;;5.20;3.83;;;6.90;99.90;;;;;;5028157;28;20718;-72
2022/04/16 02:19:16;;;;;;;5.30;4.80;;;6.90;99.90;;;;;;5028191;28;20244;-71
2022/04/16 02:21:42;;;;;;;4.40;4.00;;;6.90;99.90;;;;;;5028396;28;20419;-71
2022/04/16 02:24:08;;;;;;;3.67;3.37;;;6.90;99.90;;;;;;5013932;28;20423;-71
2022/04/16 02:26:33;;;;;;;3.63;3.27;;;6.80;99.90;;;;;;5031687;28;20999;-71
2022/04/16 02:29:00;;;;;;;3.43;3.13;;;6.80;99.90;;;;;;5031798;28;20630;-71
2022/04/16 02:31:26;;;;;;;3.30;3.10;;;6.80;99.90;;;;;;5031828;28;20219;-71
2022/04/16 02:33:52;;;;;;;4.03;3.00;;;6.80;99.90;;;;;;5031721;28;20455;-71
2022/04/16 02:36:19;;;;;;;3.97;3.30;;;6.80;99.90;;;;;;5014077;28;20528;-71
2022/04/16 02:38:47;;;;;;;4.67;3.80;;;6.80;99.90;;;;;;5031983;28;20181;-71
2022/04/16 02:41:14;;;;;;;4.10;3.70;;;6.80;99.90;;;;;;5031987;28;20411;-71
2022/04/16 02:43:40;;;;;;;4.10;3.70;;;6.80;99.90;;;;;;5031996;28;20425;-71
2022/04/16 02:48:49;;;;;;;4.60;3.47;;;6.90;99.90;;;;;;5032548;28;20199;-71
2022/04/16 02:51:15;;;;;;;5.37;3.13;;;6.80;99.90;;;;;;5032657;28;20408;-71
2022/04/16 02:53:41;;;;;;;6.40;3.70;;;6.80;99.90;;;;;;5033812;28;20189;-72
2022/04/16 02:56:07;;;;;;;4.60;3.50;;;6.70;99.90;;;;;;5015524;28;20200;-72
2022/04/16 02:58:33;;;;;;;3.17;2.90;;;6.70;99.90;;;;;;5033212;28;20254;-72
2022/04/16 03:00:58;;;;;;;4.80;3.30;;;6.50;99.90;;;;;;5015386;28;20418;-72
2022/04/16 03:03:24;;;;;;;11.30;3.80;;;6.40;99.90;;;;;;5032764;28;20188;-72
2022/04/16 03:05:49;;;;;;;8.13;4.07;;;6.40;99.90;;;;;;5014928;28;20191;-72
2022/04/16 03:08:15;;;;;;;3.97;3.10;;;6.20;99.90;;;;;;5031918;28;20970;-71
2022/04/16 03:10:41;;;;;;;3.40;2.83;;;6.10;99.90;;;;;;5031333;28;20189;-71
2022/04/16 03:13:07;;;;;;;5.17;3.20;;;6.00;99.90;;;;;;5031261;28;20190;-72
2022/04/16 03:18:18;;;;;;;4.23;3.50;;;5.90;99.90;;;;;;5031328;28;20658;-71
2022/04/16 03:20:44;;;;;;;4.40;3.50;;;5.70;99.90;;;;;;5012966;28;20437;-71
2022/04/16 03:23:10;;;;;;;4.50;3.27;;;5.70;99.90;;;;;;5030937;28;20431;-71
2022/04/16 03:25:46;;;;;;;3.80;3.43;;;5.80;99.90;;;;;;5030659;28;20718;-71
2022/04/16 03:28:12;;;;;;;3.37;3.17;;;5.60;99.90;;;;;;5030802;28;20474;-71
2022/04/16 03:30:38;;;;;;;5.37;3.90;;;5.70;99.90;;;;;;5030706;28;20423;-71
2022/04/16 03:33:05;;;;;;;4.00;3.20;;;5.70;99.90;;;;;;5030655;28;20419;-71
2022/04/16 03:35:30;;;;;;;4.70;3.40;;;5.70;99.90;;;;;;5030026;28;20491;-71
2022/04/16 03:37:56;;;;;;;4.10;3.30;;;5.70;99.90;;;;;;5030526;28;20446;-71
2022/04/16 03:40:26;;;;;;;3.53;3.23;;;5.60;99.90;;;;;;5030584;28;20188;-71
2022/04/16 03:42:53;;;;;;;4.50;3.10;;;5.40;99.90;;;;;;5030328;28;20423;-70
2022/04/16 03:45:24;;;;;;;5.90;4.13;;;5.40;99.90;;;;;;5030482;28;20467;-72
2022/04/16 03:47:51;;;;;;;4.90;3.63;;;5.50;99.90;;;;;;5012621;28;20536;-70
2022/04/16 03:50:18;;;;;;;4.53;3.87;;;5.50;99.90;;;;;;5030204;28;20423;-72
2022/04/16 03:52:46;;;;;;;3.88;3.47;;;5.30;99.90;;;;;;5030189;28;20427;-71
2022/04/16 04:00:47;;;;;;;3.22;3.03;;;5.60;99.90;;;;;;5030308;28;20852;-72
2022/04/16 04:03:13;;;;;;;3.97;3.40;;;5.60;99.90;;;;;;4995764;28;20192;-71
2022/04/16 04:05:40;;;;;;;8.80;4.00;;;5.60;99.90;;;;;;5029784;28;20418;-71
2022/04/16 04:08:07;;;;;;;3.40;3.10;;;5.70;99.90;;;;;;5029769;28;20498;-71
2022/04/16 04:10:33;;;;;;;5.13;3.70;;;5.70;99.90;;;;;;5029821;28;20507;-74
2022/04/16 04:12:59;;;;;;;3.37;3.07;;;5.70;99.90;;;;;;5012306;28;20415;-73
2022/04/16 04:15:27;;;;;;;5.10;3.77;;;5.70;99.90;;;;;;5029895;28;20426;-74
2022/04/16 04:17:53;;;;;;;9.77;3.70;;;5.70;99.90;;;;;;5029728;28;20929;-74
2022/04/16 04:20:19;;;;;;;7.10;3.90;;;5.70;99.90;;;;;;5029635;28;20429;-74
2022/04/16 04:22:44;;;;;;;6.17;3.80;;;5.50;99.90;;;;;;5029610;28;20548;-71
2022/04/16 04:25:10;;;;;;;5.90;3.60;;;5.50;99.90;;;;;;5029397;28;20943;-73
2022/04/16 04:27:35;;;;;;;3.00;2.70;;;5.40;99.90;;;;;;5029418;28;20216;-72
2022/04/16 04:30:02;;;;;;;3.77;3.20;;;5.40;99.90;;;;;;5011412;28;20194;-71
2022/04/16 04:32:28;;;;;;;4.00;3.60;;;5.40;99.90;;;;;;5029972;28;20188;-71
2022/04/16 04:34:54;;;;;;;4.10;3.70;;;5.40;99.90;;;;;;5029306;28;20427;-70
2022/04/16 04:37:19;;;;;;;3.17;2.90;;;5.20;99.90;;;;;;5029395;28;20541;-71
2022/04/16 04:39:45;;;;;;;4.23;3.83;;;5.30;99.90;;;;;;5011504;28;20215;-71
2022/04/16 04:42:10;;;;;;;5.73;3.80;;;5.40;99.90;;;;;;5011492;28;20195;-70
2022/04/16 04:44:36;;;;;;;6.27;3.43;;;5.30;99.90;;;;;;5029450;28;20180;-71
2022/04/16 04:47:02;;;;;;;3.37;3.07;;;5.30;99.90;;;;;;5029075;28;20636;-70
2022/04/16 04:49:30;;;;;;;4.90;3.60;;;5.30;99.90;;;;;;5011188;28;20188;-72
2022/04/16 04:51:56;;;;;;;4.07;3.67;;;5.30;99.90;;;;;;5029272;28;20762;-71
2022/04/16 04:54:21;;;;;;;4.03;3.63;;;5.30;99.90;;;;;;5011205;28;20435;-74
2022/04/16 04:56:47;;;;;;;3.80;2.97;;;5.70;99.90;;;;;;5029512;28;20209;-78
2022/04/16 04:59:13;;;;;;;3.50;3.20;;;5.80;99.90;;;;;;5013457;28;20889;-79
2022/04/16 05:01:39;;;;;;;3.43;3.13;;;6.00;99.90;;;;;;5016399;28;20485;-75
2022/04/16 05:04:05;;;;;;;4.20;3.63;;;6.30;99.90;;;;;;5029275;28;20184;-72
2022/04/16 05:06:30;;;;;;;5.27;3.47;;;6.30;99.90;;;;;;5029057;28;20254;-74
2022/04/16 05:08:56;;;;;;;6.90;3.90;;;6.30;99.90;;;;;;4994759;28;20423;-74
2022/04/16 05:11:22;;;;;;;4.13;3.23;;;6.40;99.90;;;;;;5028841;28;20216;-73
2022/04/16 05:13:47;;;;;;;3.40;3.20;;;6.40;99.90;;;;;;5029001;28;20176;-76
2022/04/16 05:16:13;;;;;;;3.90;3.53;;;6.60;99.90;;;;;;5028847;28;20445;-76
2022/04/16 05:18:41;;;;;;;3.90;3.50;;;6.60;99.90;;;;;;5028890;28;20200;-76
2022/04/16 05:21:06;;;;;;;3.67;3.37;;;6.60;99.90;;;;;;5011283;28;20437;-76
2022/04/16 05:23:32;;;;;;;5.03;3.80;;;6.60;99.90;;;;;;5011177;28;20435;-77
2022/04/16 05:25:58;;;;;;;4.90;4.07;;;6.70;99.90;;;;;;5028897;28;20223;-76
2022/04/16 05:28:23;;;;;;;5.33;4.10;;;6.70;99.90;;;;;;5010992;28;20222;-76
2022/04/16 05:30:54;;;;;;;6.47;3.80;;;6.80;99.90;;;;;;5028779;28;20571;-76
2022/04/16 05:36:07;;;;;;;5.07;3.77;;;7.10;99.90;;;;;;5013990;28;20434;-77
2022/04/16 05:38:33;;;;;;;6.07;4.10;;;7.20;99.90;;;;;;5010856;28;20427;-76
2022/04/16 05:40:59;;;;;;;3.67;3.37;;;7.30;99.90;;;;;;5011079;28;20258;-76
2022/04/16 05:43:25;;;;;;;4.57;4.17;;;7.50;99.90;;;;;;5011294;28;20446;-77
2022/04/16 05:45:50;;;;;;;4.67;4.10;;;7.70;99.90;;;;;;5029316;28;20431;-76
2022/04/16 05:48:17;;;;;;;6.00;4.33;;;7.80;99.90;;;;;;5028899;28;20681;-77
2022/04/16 05:50:43;;;;;;;6.00;3.53;;;7.90;99.90;;;;;;5029159;28;20191;-77
2022/04/16 05:53:11;;;;;;;5.07;3.27;;;8.00;99.90;;;;;;5011559;28;20427;-76
2022/04/16 05:55:47;;;;;;;4.43;3.57;;;8.10;99.90;;;;;;5029319;28;20423;-77
2022/04/16 05:58:14;;;;;;;7.03;3.70;;;8.20;99.90;;;;;;4998681;28;20848;-76
2022/04/16 06:00:40;;;;;;;4.03;3.60;;;8.30;99.90;;;;;;4999083;28;20493;-77
2022/04/16 06:03:07;;;;;;;5.13;4.43;;;8.40;99.90;;;;;;5015222;28;20435;-77
2022/04/16 06:05:32;;;;;;;5.83;3.90;;;8.40;99.90;;;;;;5033286;28;20947;-76
2022/04/16 06:07:59;;;;;;;3.93;3.50;;;8.70;99.90;;;;;;5032853;28;20466;-77
2022/04/16 06:10:26;;;;;;;4.30;3.47;;;8.70;99.90;;;;;;5033170;28;20205;-76
2022/04/16 06:12:51;;;;;;;5.67;4.13;;;8.80;99.90;;;;;;5015179;28;20449;-76
2022/04/16 06:15:17;;;;;;;4.37;3.97;;;8.90;99.90;;;;;;5032837;28;20447;-76
2022/04/16 06:17:43;;;;;;;4.47;4.00;;;9.20;99.90;;;;;;5032416;28;20289;-76
2022/04/16 06:20:09;;;;;;;5.70;4.30;;;9.40;99.90;;;;;;5014673;28;20228;-77
2022/04/16 06:22:35;;;;;;;4.90;4.40;;;9.40;99.90;;;;;;5014811;28;20272;-76
2022/04/16 06:25:01;;;;;;;4.40;4.00;;;9.50;99.90;;;;;;5032208;28;20533;-77
2022/04/16 06:27:27;;;;;;;5.10;4.30;;;9.60;99.90;;;;;;5032509;28;20478;-78
2022/04/16 06:29:53;;;;;;;6.80;4.80;;;9.60;99.90;;;;;;5032308;28;20916;-76
2022/04/16 06:32:18;;;;;;;4.90;4.50;;;9.60;99.90;;;;;;5032356;28;20203;-76
2022/04/16 06:34:44;;;;;;;6.73;5.00;;;9.60;99.90;;;;;;5014716;28;20985;-76
2022/04/16 06:37:10;;;;;;;6.20;4.80;;;9.60;99.90;;;;;;5032347;28;20681;-77
2022/04/16 06:39:36;;;;;;;6.50;5.10;;;9.70;99.90;;;;;;5014629;28;20190;-76
2022/04/16 06:42:01;;;;;;;6.00;4.73;;;9.70;99.90;;;;;;5013483;28;20181;-77
2022/04/16 06:44:27;;;;;;;5.87;5.10;;;9.70;99.90;;;;;;5013476;28;20858;-77
2022/04/16 06:46:54;;;;;;;6.20;5.43;;;9.80;99.90;;;;;;5030731;28;20693;-78
2022/04/16 06:49:20;;;;;;;11.17;5.93;;;9.80;99.90;;;;;;5013418;28;20212;-76
2022/04/16 06:51:46;;;;;;;6.90;5.00;;;9.70;99.90;;;;;;5013142;28;20514;-76
2022/04/16 06:54:12;;;;;;;5.90;5.30;;;9.70;99.90;;;;;;5030977;28;20867;-77
2022/04/16 06:56:38;;;;;;;7.70;5.40;;;9.80;99.90;;;;;;5013094;28;20886;-76
2022/04/16 06:59:03;;;;;;;7.07;5.13;;;9.70;99.90;;;;;;5030563;28;20272;-77
2022/04/16 07:01:29;;;;;;;7.03;5.63;;;9.80;99.90;;;;;;4996690;28;20272;-78
2022/04/16 07:03:54;;;;;;;6.67;5.03;;;9.90;99.90;;;;;;5030838;28;20295;-77
2022/04/16 07:06:20;;;;;;;6.23;4.90;;;9.90;99.90;;;;;;5013252;28;20210;-76
2022/04/16 07:08:46;;;;;;;8.50;4.83;;;10.10;99.90;;;;;;5012262;28;20191;-77
2022/04/16 07:11:11;;;;;;;6.20;5.00;;;10.10;99.90;;;;;;5031053;28;20180;-77
2022/04/16 07:13:37;;;;;;;9.50;6.47;;;10.10;99.90;;;;;;5031171;28;20188;-77
2022/04/16 07:16:03;;;;;;;6.50;5.40;;;10.20;99.90;;;;;;5013192;28;20286;-78
2022/04/16 07:18:29;;;;;;;6.60;5.43;;;10.30;99.90;;;;;;5013075;28;20193;-77
2022/04/16 07:20:54;;;;;;;6.00;4.93;;;10.40;99.90;;;;;;5031458;28;20442;-77
2022/04/16 07:23:20;;;;;;;5.37;4.90;;;10.40;99.90;;;;;;4996906;28;20211;-77
2022/04/16 07:25:45;;;;;;;7.33;5.10;;;10.50;99.90;;;;;;5013422;28;20255;-77
2022/04/16 07:28:12;;;;;;;5.80;5.03;;;10.60;99.90;;;;;;4996628;28;20703;-77
2022/04/16 07:30:38;;;;;;;7.03;4.53;;;10.70;99.90;;;;;;5031445;28;20191;-77
2022/04/16 07:33:04;;;;;;;7.03;4.90;;;10.90;99.90;;;;;;5032976;28;20416;-78
2022/04/16 07:35:29;;;;;;;8.53;6.27;;;10.90;99.90;;;;;;5020431;28;20247;-78
2022/04/16 07:37:58;;;;;;;5.40;4.90;;;10.90;99.90;;;;;;5014877;28;20933;-78
2022/04/16 07:40:25;;;;;;;6.33;5.57;;;10.80;99.90;;;;;;5014059;28;20191;-78
2022/04/16 07:42:51;;;;;;;7.40;5.50;;;10.90;99.90;;;;;;5032716;28;20550;-78
2022/04/16 07:45:16;;;;;;;8.83;5.43;;;10.90;99.90;;;;;;5021519;28;20430;-78
2022/04/16 07:47:42;;;;;;;6.40;5.30;;;11.10;99.90;;;;;;5030757;28;20466;-78
2022/04/16 07:50:08;;;;;;;5.77;5.17;;;11.10;99.90;;;;;;5031759;28;20194;-78
2022/04/16 07:52:34;;;;;;;6.20;5.03;;;11.10;99.90;;;;;;5011943;28;20193;-78
2022/04/16 07:55:00;;;;;;;5.33;4.70;;;11.20;99.90;;;;;;5029365;28;20420;-78
2022/04/16 07:57:25;;;;;;;6.17;4.87;;;11.30;99.90;;;;;;5029151;28;20207;-79
2022/04/16 07:59:53;;;;;;;6.77;5.37;;;11.40;99.90;;;;;;4995345;28;20823;-78
2022/04/16 08:02:19;;;;;;;6.60;5.40;;;11.30;99.90;;;;;;5029307;28;20303;-78
2022/04/16 08:04:45;;;;;;;15.10;5.80;;;11.30;99.90;;;;;;5029213;28;20423;-78
2022/04/16 08:07:11;;;;;;;11.50;5.77;;;11.20;99.90;;;;;;5028820;28;20465;-78
2022/04/16 08:09:36;;;;;;;7.93;5.37;;;11.20;99.90;;;;;;5011578;28;20188;-78
2022/04/16 08:12:02;;;;;;;5.93;5.33;;;11.30;99.90;;;;;;5011029;28;20183;-78
2022/04/16 08:14:28;;;;;;;6.83;5.70;;;11.40;99.90;;;;;;5029221;28;20185;-79
2022/04/16 08:16:54;;;;;;;9.10;6.40;;;11.50;99.90;;;;;;5028779;28;21097;-75
2022/04/16 08:19:19;;;;;;;7.73;5.90;;;11.50;99.90;;;;;;5010480;28;20850;-76
2022/04/16 08:21:45;;;;;;;8.03;5.47;;;11.50;99.90;;;;;;5028378;28;20587;-75
2022/04/16 08:24:22;;;;;;;6.60;5.40;;;11.40;99.90;;;;;;5028308;28;20761;-75
2022/04/16 08:26:48;;;;;;;6.80;6.00;;;11.40;99.90;;;;;;4998881;28;20880;-75
2022/04/16 08:29:13;;;;;;;8.07;6.30;;;11.40;99.90;;;;;;5028246;28;20415;-75
2022/04/16 08:31:39;;;;;;;7.50;6.37;;;11.40;99.90;;;;;;4994127;28;20430;-75
2022/04/16 08:34:05;;;;;;;7.57;6.50;;;11.50;99.90;;;;;;5010345;28;20181;-75
2022/04/16 08:36:30;;;;;;;10.20;6.97;;;11.50;99.90;;;;;;5027814;28;20204;-75
2022/04/16 08:38:56;;;;;;;8.77;5.80;;;11.30;99.90;;;;;;5027875;28;20180;-75
2022/04/16 08:41:24;;;;;;;7.77;6.17;;;11.40;99.90;;;;;;5010206;28;20648;-75
2022/04/16 08:43:52;;;;;;;6.93;5.63;;;11.40;99.90;;;;;;5027970;28;20589;-75
2022/04/16 08:46:18;;;;;;;10.20;7.30;;;11.50;99.90;;;;;;5027697;28;20447;-75
2022/04/16 08:48:44;;;;;;;7.83;5.90;;;11.60;99.90;;;;;;5010175;28;20473;-75
2022/04/16 08:51:11;;;;;;;18.00;6.13;;;11.50;99.90;;;;;;5010065;28;20761;-75
2022/04/16 08:53:37;;;;;;;9.30;6.33;;;11.60;99.90;;;;;;5027644;28;20415;-75
2022/04/16 08:56:03;;;;;;;9.10;6.77;;;11.70;99.90;;;;;;5027586;28;20443;-75
2022/04/16 08:58:30;;;;;;;8.20;6.87;;;11.80;99.90;;;;;;5027647;28;20497;-75
2022/04/16 09:00:56;;;;;;;7.13;6.33;;;11.70;99.90;;;;;;5009552;28;20438;-75
2022/04/16 09:03:30;;;;;;;7.33;6.17;;;11.70;99.90;;;;;;5027653;28;20922;-75
2022/04/16 09:05:55;;;;;;;7.33;5.63;;;11.70;99.90;;;;;;5027384;28;20459;-75
2022/04/16 09:08:30;;;;;;;8.60;6.40;;;11.80;99.90;;;;;;5027640;28;20500;-75
2022/04/16 09:11:07;;;;;;;8.10;6.43;;;12.00;99.90;;;;;;5027592;28;20186;-75
2022/04/16 09:13:34;;;;;;;11.50;7.07;;;12.10;99.90;;;;;;5027532;28;20449;-75
2022/04/16 09:16:04;;;;;;;8.43;6.47;;;12.10;99.90;;;;;;5027354;28;20456;-75
2022/04/16 09:18:30;;;;;;;9.23;5.73;;;12.20;99.90;;;;;;5009245;28;20432;-75
2022/04/16 09:20:55;;;;;;;8.40;6.87;;;12.30;99.90;;;;;;5009244;28;20429;-75
2022/04/16 09:23:22;;;;;;;8.83;6.80;;;12.40;99.90;;;;;;5027348;28;20186;-75
2022/04/16 09:25:49;;;;;;;8.83;7.43;;;12.40;99.90;;;;;;5009415;28;20201;-75
2022/04/16 09:28:17;;;;;;;8.70;6.43;;;12.40;99.90;;;;;;5027113;28;20469;-75
2022/04/16 09:30:55;;;;;;;10.30;6.63;;;12.50;99.90;;;;;;5027380;28;20416;-75
2022/04/16 09:33:22;;;;;;;14.37;7.43;;;12.50;99.90;;;;;;5026755;28;20411;-75
2022/04/16 09:35:52;;;;;;;8.90;6.90;;;12.50;99.90;;;;;;5027012;28;20987;-75
2022/04/16 09:38:17;;;;;;;8.80;6.33;;;12.60;99.90;;;;;;5027107;28;20489;-75
2022/04/16 09:40:47;;;;;;;8.37;6.50;;;12.60;99.90;;;;;;5009427;28;20521;-75
2022/04/16 09:43:13;;;;;;;5.73;5.13;;;12.60;99.90;;;;;;5009317;28;20209;-75
2022/04/16 09:45:40;;;;;;;8.77;7.03;;;12.50;99.90;;;;;;5026985;28;20464;-75
2022/04/16 09:48:11;;;;;;;9.20;6.47;;;12.50;99.90;;;;;;5009307;28;20210;-74
2022/04/16 09:50:38;;;;;;;6.63;5.80;;;12.60;99.90;;;;;;5027161;28;20413;-75
2022/04/16 09:53:05;;;;;;;28.47;8.27;;;12.70;99.90;;;;;;5027148;28;21157;-75
2022/04/16 09:55:31;;;;;;;6.60;5.90;;;12.60;99.90;;;;;;5008914;28;20424;-75
2022/04/16 09:58:02;;;;;;;6.63;5.93;;;12.60;99.90;;;;;;5027338;28;21020;-75
2022/04/16 10:00:31;;;;;;;10.50;7.00;;;12.60;99.90;;;;;;5026704;28;20960;-75
2022/04/16 10:02:58;;;;;;;7.07;6.33;;;12.50;99.90;;;;;;5027181;28;20913;-75
2022/04/16 10:05:24;;;;;;;6.37;5.63;;;12.50;99.90;;;;;;5027003;28;20428;-75
2022/04/16 10:07:52;;;;;;;7.27;5.50;;;12.40;99.80;;;;;;5026734;28;21003;-75
2022/04/16 10:10:28;;;;;;;6.70;5.50;;;12.30;99.30;;;;;;5026922;28;20414;-75
2022/04/16 10:12:59;;;;;;;7.00;5.30;;;12.30;99.90;;;;;;5010160;28;21077;-75
2022/04/16 10:15:32;;;;;;;7.70;5.60;;;12.20;99.90;;;;;;5026832;28;20519;-75
2022/04/16 10:17:58;;;;;;;8.00;6.87;;;12.20;99.90;;;;;;5026508;28;20435;-75
2022/04/16 10:20:25;;;;;;;10.30;8.07;;;12.20;99.90;;;;;;5009131;28;20428;-75
2022/04/16 10:22:59;;;;;;;6.47;5.77;;;12.30;99.90;;;;;;5026929;28;20420;-75
2022/04/16 10:25:39;;;;;;;6.47;4.80;;;12.20;99.90;;;;;;5008587;28;20446;-75
2022/04/16 10:28:07;;;;;;;6.50;5.30;;;12.30;99.90;;;;;;5026629;28;20974;-75
2022/04/16 10:30:50;;;;;;;6.80;6.00;;;12.40;99.90;;;;;;5026768;28;20416;-75
2022/04/16 10:33:23;;;;;;;7.07;6.17;;;12.70;99.90;;;;;;5026790;28;20422;-75
2022/04/16 10:35:52;;;;;;;9.90;6.13;;;12.90;99.90;;;;;;5026598;28;21142;-75
2022/04/16 10:38:25;;;;;;;6.57;5.10;;;13.10;99.90;;;;;;5026843;28;20409;-76
2022/04/16 10:40:57;;;;;;;5.80;5.30;;;13.00;98.80;;;;;;5008849;28;20524;-76
2022/04/16 10:43:33;;;;;;;6.63;5.60;;;13.00;99.30;;;;;;5028096;28;20428;-75
2022/04/16 10:46:09;;;;;;;7.67;6.17;;;12.90;99.30;;;;;;5012294;28;20486;-75
2022/04/16 10:48:41;;;;;;;6.47;5.87;;;12.80;99.50;;;;;;5011976;28;20488;-75
2022/04/16 10:51:08;;;;;;;7.63;5.73;;;12.70;99.80;;;;;;5030176;28;20450;-75
2022/04/16 10:53:36;;;;;;;6.87;5.17;;;12.80;99.80;;;;;;5030030;28;21000;-75
2022/04/16 10:56:15;;;;;;;5.90;5.10;;;12.70;98.50;;;;;;5012033;28;20496;-75
2022/04/16 10:58:45;;;;;;;5.03;4.53;;;12.80;97.60;;;;;;5029862;28;20489;-75
2022/04/16 11:01:12;;;;;;;5.83;5.20;;;12.90;98.40;;;;;;5030132;28;20414;-76
2022/04/16 11:03:50;;;;;;;6.60;5.60;;;12.80;98.20;;;;;;5029906;28;20422;-75
2022/04/16 11:06:17;;;;;;;9.50;6.37;;;12.70;99.00;;;;;;5029757;28;20440;-75
2022/04/16 11:08:47;;;;;;;7.30;5.57;;;12.90;99.60;;;;;;5029659;28;20476;-75
2022/04/16 11:11:14;;;;;;;12.80;9.30;;;12.90;96.40;;;;;;5029489;28;20418;-75
2022/04/16 11:13:42;;;;;;;7.00;6.30;;;13.20;97.70;;;;;;5029617;28;20428;-76
2022/04/16 11:16:08;;;;;;;5.30;4.73;;;13.50;98.10;;;;;;5029443;28;20520;-75
2022/04/16 11:18:45;;;;;;;5.27;4.70;;;14.00;95.20;;;;;;5011513;28;20431;-75
2022/04/16 11:21:13;;;;;;;5.67;4.40;;;14.40;95.10;;;;;;5011573;28;20963;-75
2022/04/16 11:23:44;;;;;;;6.80;5.10;;;14.60;93.40;;;;;;5029626;28;20426;-75
2022/04/16 11:34:41;;;;;;;6.67;4.60;;;15.00;90.90;;;;;;5029529;28;20445;-75
2022/04/16 11:37:07;;;;;;;5.37;4.87;;;14.90;92.50;;;;;;5029196;28;20442;-75
2022/04/16 11:39:36;;;;;;;8.10;4.60;;;14.80;92.60;;;;;;5029423;28;20666;-75
2022/04/16 11:42:10;;;;;;;5.23;3.80;;;14.80;92.90;;;;;;5029325;28;20506;-75
2022/04/16 11:44:41;;;;;;;5.30;4.60;;;14.60;91.20;;;;;;5012247;28;20936;-75
2022/04/16 11:47:12;;;;;;;6.20;5.50;;;14.50;91.40;;;;;;5030608;28;20477;-74
2022/04/16 11:50:00;;;;;;;5.73;5.13;;;14.90;93.10;;;;;;5029458;28;20418;-74
2022/04/16 11:52:28;;;;;;;7.47;5.67;;;14.90;93.30;;;;;;5028944;28;20431;-74
2022/04/16 11:55:04;;;;;;;6.57;5.00;;;14.90;93.00;;;;;;5011504;28;20434;-75
2022/04/16 11:57:30;;;;;;;4.93;4.10;;;14.70;92.80;;;;;;5011215;28;20443;-75
2022/04/16 12:00:07;;;;;;;4.17;3.30;;;14.60;91.70;;;;;;5029451;28;20568;-75
2022/04/16 12:02:35;;;;;;;3.17;2.87;;;14.50;90.40;;;;;;5029021;28;20418;-75
2022/04/16 12:05:14;;;;;;;3.13;2.83;;;14.30;89.20;;;;;;5028849;28;20423;-75
2022/04/16 12:07:45;;;;;;;4.10;3.70;;;14.20;88.90;;;;;;5029088;28;20480;-75
2022/04/16 12:10:16;;;;;;;4.40;4.00;;;14.10;91.40;;;;;;5028999;28;20549;-76
2022/04/16 12:12:48;;;;;;;4.00;3.60;;;14.10;90.90;;;;;;5029220;28;21002;-76
2022/04/16 12:15:24;;;;;;;3.90;3.33;;;14.30;90.90;;;;;;5029479;28;20419;-76
2022/04/16 12:17:51;;;;;;;5.37;4.53;;;14.20;90.50;;;;;;5031455;28;20472;-75
2022/04/16 12:20:18;;;;;;;8.07;5.03;;;14.10;92.50;;;;;;5030822;28;20442;-75
2022/04/16 12:23:03;;;;;;;12.43;6.20;;;14.30;92.30;;;;;;5030874;28;20430;-75
2022/04/16 12:25:29;;;;;;;5.80;4.80;;;14.40;93.90;;;;;;5030948;28;20654;-75
2022/04/16 12:27:57;;;;;;;6.90;5.43;;;14.30;92.90;;;;;;5029938;28;20488;-75
2022/04/16 12:30:25;;;;;;;6.70;5.77;;;14.50;93.70;;;;;;5030282;28;20423;-74
2022/04/16 12:32:54;;;;;;;8.53;5.73;;;14.70;93.00;;;;;;5030692;28;20427;-75
2022/04/16 12:35:20;;;;;;;5.97;5.37;;;15.00;92.70;;;;;;5030306;28;20452;-76
2022/04/16 12:37:45;;;;;;;11.47;5.63;;;15.80;92.90;;;;;;5029347;28;20447;-76
2022/04/16 12:40:11;;;;;;;8.13;5.60;;;17.00;92.00;;;;;;4995484;28;20553;-77
2022/04/16 12:42:36;;;;;;;10.83;5.10;;;17.00;85.70;;;;;;4995523;28;20196;-76
2022/04/16 12:45:02;;;;;;;6.83;5.47;;;17.00;87.00;;;;;;4995288;28;20196;-75
2022/04/16 12:47:28;;;;;;;5.70;4.70;;;16.70;86.90;;;;;;5028989;28;20227;-75
2022/04/16 12:49:54;;;;;;;8.60;5.30;;;16.60;84.30;;;;;;5029536;28;20427;-75
2022/04/16 12:52:19;;;;;;;5.90;5.27;;;16.30;85.50;;;;;;5028891;28;20316;-75
2022/04/16 12:54:45;;;;;;;7.00;5.03;;;16.50;86.70;;;;;;5028711;28;20185;-75
2022/04/16 12:57:11;;;;;;;7.27;5.20;;;17.10;87.80;;;;;;5028610;28;20225;-75
2022/04/16 12:59:36;;;;;;;6.67;5.00;;;17.50;86.10;;;;;;5028809;28;20195;-75
2022/04/16 13:02:02;;;;;;;6.13;5.20;;;17.90;81.30;;;;;;5028464;28;20332;-75
2022/04/16 13:04:29;;;;;;;7.83;5.77;;;17.90;79.90;;;;;;5028367;28;20192;-75
2022/04/16 13:06:55;;;;;;;5.40;4.90;;;17.10;77.60;;;;;;5027303;28;20479;-74
2022/04/16 13:09:20;;;;;;;5.53;5.00;;;17.30;83.30;;;;;;5028470;28;20428;-75
2022/04/16 13:11:46;;;;;;;6.73;5.80;;;17.70;82.40;;;;;;5028300;28;20579;-75
2022/04/16 13:14:12;;;;;;;6.73;5.60;;;17.70;77.60;;;;;;5028340;28;20810;-75